Time;durP1;ratioP1;P1;durP2;ratioP2;P2;SDS_P1;SDS_P2;PMS_P1;PMS_P2;Temp;Humidity;BMP_temperature;BMP_pressure;BME280_temperature;BME280_humidity;BME280_pressure;Samples;Min_cycle;Max_cycle;Signal;HPM_P1;HPM_P2
2022/11/29 00:01:42;;;;;;;47.38;17.08;;;;;;;9.53;100.00;101394.06;2614218;36;20042;-56
2022/11/29 00:04:12;;;;;;;46.58;15.10;;;;;;;9.56;100.00;101393.84;2613995;31;20031;-49
2022/11/29 00:06:40;;;;;;;69.22;16.90;;;;;;;9.49;100.00;101398.81;2613657;36;20026;-54
2022/11/29 00:09:13;;;;;;;44.83;16.40;;;;;;;9.48;100.00;101397.09;2614867;36;20026;-53
2022/11/29 00:14:27;;;;;;;47.60;17.02;;;;;;;9.53;100.00;101404.81;2615587;31;20031;-55
2022/11/29 00:17:00;;;;;;;62.35;16.45;;;;;;;9.54;100.00;101401.13;2615243;36;20030;-55
2022/11/29 00:19:29;;;;;;;55.20;16.98;;;;;;;9.60;100.00;101400.69;2616099;36;20531;-50
2022/11/29 00:21:57;;;;;;;57.25;17.65;;;;;;;9.43;100.00;101394.75;2615580;31;20563;-50
2022/11/29 00:24:26;;;;;;;69.13;18.90;;;;;;;9.40;100.00;101403.03;2615432;31;20038;-53
2022/11/29 00:26:54;;;;;;;51.63;18.35;;;;;;;9.45;100.00;101395.50;2615423;36;20034;-53
2022/11/29 00:29:25;;;;;;;87.22;19.55;;;;;;;9.47;100.00;101412.34;2615769;36;20026;-52
2022/11/29 00:31:54;;;;;;;59.17;17.15;;;;;;;9.42;100.00;101411.88;2615411;36;20026;-58
2022/11/29 00:34:22;;;;;;;53.80;18.20;;;;;;;9.38;100.00;101417.56;2615645;36;20039;-56
2022/11/29 00:36:50;;;;;;;55.55;18.08;;;;;;;9.39;100.00;101414.78;2615068;36;20027;-57
2022/11/29 00:39:19;;;;;;;72.40;21.25;;;;;;;9.33;100.00;101412.53;2615163;36;20042;-57
2022/11/29 00:41:47;;;;;;;57.70;18.85;;;;;;;9.37;100.00;101414.03;2615714;36;20039;-51
2022/11/29 00:44:15;;;;;;;57.43;19.43;;;;;;;9.50;100.00;101421.19;2612900;36;20030;-48
2022/11/29 00:46:46;;;;;;;63.35;20.75;;;;;;;9.28;100.00;101414.72;2614015;36;20673;-52
2022/11/29 00:49:15;;;;;;;55.60;19.50;;;;;;;9.39;100.00;101416.59;2614574;36;20380;-51
2022/11/29 00:51:43;;;;;;;60.33;20.77;;;;;;;9.38;100.00;101417.56;2613657;36;20031;-58
2022/11/29 00:54:11;;;;;;;95.75;22.45;;;;;;;9.26;100.00;101404.09;2612860;31;20306;-55
2022/11/29 00:56:40;;;;;;;57.45;19.38;;;;;;;9.28;100.00;101412.03;2612900;36;20454;-52
2022/11/29 00:59:08;;;;;;;56.37;17.73;;;;;;;9.43;100.00;101415.41;2614484;36;20034;-50
2022/11/29 01:01:36;;;;;;;69.60;18.27;;;;;;;9.39;100.00;101420.16;2614006;36;20319;-51
2022/11/29 01:04:07;;;;;;;57.50;18.83;;;;;;;9.37;100.00;101416.69;2613439;36;20046;-49
2022/11/29 01:06:36;;;;;;;80.00;17.60;;;;;;;9.35;100.00;101418.66;2614265;36;20415;-55
2022/11/29 01:09:04;;;;;;;51.92;16.45;;;;;;;9.41;100.00;101412.81;2613778;36;20456;-52
2022/11/29 01:11:33;;;;;;;56.17;17.67;;;;;;;9.46;100.00;101421.38;2613300;36;20455;-49
2022/11/29 01:14:03;;;;;;;52.45;17.65;;;;;;;9.41;100.00;101425.41;2613528;36;20306;-51
2022/11/29 01:16:32;;;;;;;51.13;16.15;;;;;;;9.41;100.00;101423.56;2613781;36;20030;-48
2022/11/29 01:19:02;;;;;;;76.60;17.95;;;;;;;9.42;100.00;101424.41;2615146;31;20151;-48
2022/11/29 01:21:33;;;;;;;73.32;18.27;;;;;;;9.35;100.00;101429.41;2614422;31;20038;-49
2022/11/29 01:24:01;;;;;;;66.32;17.63;;;;;;;9.35;100.00;101424.03;2614546;36;20558;-49
2022/11/29 01:26:31;;;;;;;111.65;20.17;;;;;;;9.35;100.00;101425.84;2613267;36;20035;-48
2022/11/29 01:29:00;;;;;;;81.93;18.92;;;;;;;9.33;100.00;101434.03;2614566;36;20533;-54
2022/11/29 01:31:31;;;;;;;102.97;19.75;;;;;;;9.34;100.00;101432.22;2614370;36;20035;-57
2022/11/29 01:34:01;;;;;;;56.30;16.75;;;;;;;9.42;100.00;101443.22;2614166;36;20106;-49
2022/11/29 01:36:33;;;;;;;93.95;19.75;;;;;;;9.38;100.00;101434.56;2613972;31;20107;-49
2022/11/29 01:39:03;;;;;;;83.88;17.65;;;;;;;9.39;100.00;101441.66;2613789;31;20392;-49
2022/11/29 01:41:33;;;;;;;200.55;24.35;;;;;;;9.46;100.00;101442.88;2615010;36;20042;-50
2022/11/29 01:44:06;;;;;;;56.10;17.98;;;;;;;9.56;100.00;101450.28;2614316;36;20038;-49
2022/11/29 01:46:36;;;;;;;63.92;17.85;;;;;;;9.57;100.00;101450.16;2612881;31;20027;-49
2022/11/29 01:49:09;;;;;;;75.80;17.70;;;;;;;9.58;100.00;101451.00;2614085;36;20039;-49
2022/11/29 01:51:43;;;;;;;86.88;19.10;;;;;;;9.53;100.00;101451.34;2614053;36;20062;-49
2022/11/29 01:54:13;;;;;;;56.60;17.60;;;;;;;9.54;100.00;101450.38;2612708;31;20034;-49
2022/11/29 01:56:42;;;;;;;129.18;20.02;;;;;;;9.66;100.00;101459.34;2614534;36;20555;-48
2022/11/29 01:59:13;;;;;;;59.80;17.33;;;;;;;9.63;100.00;101459.59;2614821;31;20539;-52
2022/11/29 02:01:41;;;;;;;110.85;18.80;;;;;;;9.69;100.00;101460.94;2612504;36;20499;-51
2022/11/29 02:04:10;;;;;;;49.37;14.97;;;;;;;9.56;100.00;101461.03;2611985;31;20038;-49
2022/11/29 02:06:43;;;;;;;53.80;17.92;;;;;;;9.66;100.00;101467.41;2613152;36;20061;-50
2022/11/29 02:09:20;;;;;;;58.58;16.83;;;;;;;9.52;100.00;101465.75;2613446;36;20060;-54
2022/11/29 02:12:05;;;;;;;52.45;16.65;;;;;;;9.51;100.00;101469.44;2614516;36;20042;-54
2022/11/29 02:14:52;;;;;;;101.00;18.30;;;;;;;9.46;100.00;101474.28;2614849;31;20038;-54
2022/11/29 02:17:32;;;;;;;83.28;17.23;;;;;;;9.54;100.00;101476.38;2611673;36;20035;-50
2022/11/29 02:20:24;;;;;;;51.83;15.32;;;;;;;9.62;100.00;101472.16;2614601;36;20042;-53
2022/11/29 02:23:03;;;;;;;63.67;17.08;;;;;;;9.61;100.00;101477.66;2611838;36;20038;-56
2022/11/29 02:25:53;;;;;;;60.78;17.48;;;;;;;9.68;100.00;101478.91;2613484;31;20048;-51
2022/11/29 02:28:46;;;;;;;59.97;17.48;;;;;;;9.72;100.00;101480.41;2613064;36;20035;-54
2022/11/29 02:31:50;;;;;;;53.53;17.92;;;;;;;9.71;100.00;101484.03;2614324;36;20038;-49
2022/11/29 02:34:41;;;;;;;62.53;18.38;;;;;;;9.67;100.00;101484.41;2611922;36;20503;-48
2022/11/29 02:37:29;;;;;;;68.75;18.88;;;;;;;9.75;100.00;101480.16;2612476;36;20034;-49
2022/11/29 02:40:13;;;;;;;102.30;19.77;;;;;;;9.75;100.00;101482.84;2614638;36;20030;-49
2022/11/29 02:42:56;;;;;;;65.72;17.90;;;;;;;9.82;100.00;101489.47;2613999;36;20061;-58
2022/11/29 02:45:40;;;;;;;51.63;16.33;;;;;;;9.85;100.00;101490.22;2609203;36;20023;-54
2022/11/29 02:48:33;;;;;;;52.63;15.38;;;;;;;9.77;100.00;101491.66;2609073;36;20042;-51
2022/11/29 02:51:10;;;;;;;82.85;18.17;;;;;;;9.70;100.00;101489.53;2611094;36;20030;-51
2022/11/29 02:53:45;;;;;;;147.50;19.92;;;;;;;9.73;100.00;101494.69;2611559;36;20035;-49
2022/11/29 02:56:23;;;;;;;55.38;17.13;;;;;;;9.79;100.00;101492.41;2609654;31;20035;-48
2022/11/29 02:59:00;;;;;;;56.45;17.13;;;;;;;9.80;100.00;101488.75;2611637;36;20031;-51
2022/11/29 03:01:35;;;;;;;133.60;19.85;;;;;;;9.80;100.00;101491.44;2613005;36;20035;-49
2022/11/29 03:04:11;;;;;;;79.32;19.52;;;;;;;9.82;100.00;101494.84;2612302;36;20030;-55
2022/11/29 03:06:51;;;;;;;112.60;19.58;;;;;;;9.71;100.00;101492.09;2613672;36;20038;-54
2022/11/29 03:09:27;;;;;;;59.53;16.65;;;;;;;9.67;100.00;101493.31;2611112;36;20444;-49
2022/11/29 03:12:08;;;;;;;49.20;14.45;;;;;;;9.80;100.00;101499.50;2612905;36;20046;-49
2022/11/29 03:14:51;;;;;;;50.30;14.52;;;;;;;9.74;100.00;101497.25;2610490;36;20039;-56
2022/11/29 03:17:32;;;;;;;72.13;17.88;;;;;;;9.76;100.00;101500.69;2613291;31;20026;-51
2022/11/29 03:20:12;;;;;;;49.10;15.32;;;;;;;9.85;100.00;101501.84;2613049;36;20034;-52
2022/11/29 03:22:49;;;;;;;47.08;14.07;;;;;;;9.80;100.00;101509.38;2613007;31;20030;-49
2022/11/29 03:25:24;;;;;;;37.72;12.80;;;;;;;9.76;100.00;101511.47;2613484;36;20038;-56
2022/11/29 03:28:01;;;;;;;37.35;12.82;;;;;;;9.77;100.00;101505.09;2613097;36;20559;-57
2022/11/29 03:30:33;;;;;;;39.80;12.55;;;;;;;9.62;100.00;101508.94;2612729;31;20042;-51
2022/11/29 03:33:09;;;;;;;53.38;13.45;;;;;;;9.65;100.00;101511.38;2614097;36;20053;-51
2022/11/29 03:35:42;;;;;;;42.50;12.18;;;;;;;9.61;100.00;101504.53;2614266;36;20578;-50
2022/11/29 03:38:22;;;;;;;40.60;12.20;;;;;;;9.49;100.00;101518.88;2612485;36;20034;-50
2022/11/29 03:40:59;;;;;;;41.67;12.00;;;;;;;9.40;100.00;101523.94;2615129;36;20046;-57
2022/11/29 03:43:35;;;;;;;40.88;13.52;;;;;;;9.43;100.00;101529.09;2612193;36;20216;-50
2022/11/29 03:46:07;;;;;;;41.00;11.23;;;;;;;9.53;100.00;101531.13;2613218;36;21689;-51
2022/11/29 03:48:40;;;;;;;40.60;12.63;;;;;;;9.56;100.00;101530.91;2612844;36;20034;-50
2022/11/29 03:51:15;;;;;;;40.45;11.98;;;;;;;9.55;100.00;101531.84;2615098;36;20038;-56
2022/11/29 03:53:52;;;;;;;39.60;11.60;;;;;;;9.54;100.00;101524.75;2614820;36;20031;-50
2022/11/29 03:56:30;;;;;;;34.38;11.43;;;;;;;9.58;100.00;101532.47;2613529;36;20039;-54
2022/11/29 03:59:12;;;;;;;33.35;9.95;;;;;;;9.45;100.00;101537.03;2613940;36;20026;-47
2022/11/29 04:02:22;;;;;;;31.83;9.95;;;;;;;9.43;100.00;101539.00;2613899;36;20030;-53
2022/11/29 04:05:38;;;;;;;37.00;10.30;;;;;;;9.57;100.00;101543.34;2613614;36;20431;-48
2022/11/29 04:08:43;;;;;;;55.17;10.90;;;;;;;9.46;100.00;101547.66;2609997;36;20038;-50
2022/11/29 04:11:57;;;;;;;40.20;9.88;;;;;;;9.37;100.00;101542.97;2612499;36;20073;-51
2022/11/29 04:14:35;;;;;;;36.20;10.48;;;;;;;9.39;100.00;101546.44;2613645;36;20031;-50
2022/11/29 04:17:29;;;;;;;57.45;12.30;;;;;;;9.25;100.00;101546.56;2611139;36;20035;-51
2022/11/29 04:20:30;;;;;;;71.30;11.75;;;;;;;9.29;100.00;101548.06;2615036;36;20447;-55
2022/11/29 04:23:24;;;;;;;50.78;10.90;;;;;;;9.42;100.00;101556.06;2613004;31;20034;-55
2022/11/29 04:26:17;;;;;;;59.53;12.75;;;;;;;9.45;100.00;101558.53;2611088;36;20038;-49
2022/11/29 04:29:14;;;;;;;45.53;11.35;;;;;;;9.49;100.00;101553.81;2612339;36;20045;-51
2022/11/29 04:32:03;;;;;;;32.97;10.48;;;;;;;9.55;100.00;101556.03;2611398;36;20597;-59
2022/11/29 04:34:56;;;;;;;39.03;10.77;;;;;;;9.59;100.00;101550.31;2615238;31;20546;-52
2022/11/29 04:37:48;;;;;;;34.58;10.93;;;;;;;9.67;100.00;101541.69;2613333;36;20582;-47
2022/11/29 04:40:38;;;;;;;38.85;9.82;;;;;;;9.59;100.00;101544.09;2611849;36;20034;-50
2022/11/29 04:43:22;;;;;;;33.80;10.70;;;;;;;9.75;100.00;101544.69;2613426;36;20032;-56
2022/11/29 04:46:10;;;;;;;35.40;10.35;;;;;;;9.73;100.00;101549.31;2613824;31;20038;-52
2022/11/29 04:48:52;;;;;;;46.92;11.77;;;;;;;9.57;100.00;101546.91;2614015;31;20030;-48
2022/11/29 04:51:34;;;;;;;41.65;10.18;;;;;;;9.67;100.00;101555.13;2615813;31;20030;-49
2022/11/29 04:54:11;;;;;;;45.80;11.00;;;;;;;9.69;100.00;101552.31;2613597;36;20570;-53
2022/11/29 04:56:45;;;;;;;60.00;12.80;;;;;;;9.60;100.00;101564.63;2614245;36;20061;-49
2022/11/29 04:59:20;;;;;;;61.58;12.07;;;;;;;9.57;100.00;101570.22;2614566;36;20093;-50
2022/11/29 05:02:03;;;;;;;48.65;12.60;;;;;;;9.65;100.00;101570.53;2612564;31;20566;-49
2022/11/29 05:04:38;;;;;;;38.05;11.65;;;;;;;9.67;100.00;101573.94;2614255;31;20033;-49
2022/11/29 05:07:14;;;;;;;56.05;12.45;;;;;;;9.50;100.00;101577.88;2613855;36;20585;-49
2022/11/29 05:09:57;;;;;;;61.13;12.82;;;;;;;9.55;100.00;101581.06;2613635;31;20023;-55
2022/11/29 05:12:34;;;;;;;57.10;12.63;;;;;;;9.73;100.00;101586.06;2609499;36;20034;-49
2022/11/29 05:15:36;;;;;;;43.10;11.63;;;;;;;9.78;100.00;101584.78;2613408;36;20035;-50
2022/11/29 05:18:16;;;;;;;43.85;11.85;;;;;;;9.82;100.00;101599.72;2611018;36;20457;-57
2022/11/29 05:20:50;;;;;;;46.30;11.20;;;;;;;9.84;100.00;101602.28;2614530;36;20063;-52
2022/11/29 05:23:36;;;;;;;77.45;14.23;;;;;;;9.75;100.00;101600.28;2615317;36;20434;-54
2022/11/29 05:26:10;;;;;;;40.03;11.35;;;;;;;9.66;100.00;101599.13;2613533;36;20540;-51
2022/11/29 05:28:51;;;;;;;41.85;10.95;;;;;;;9.79;100.00;101599.94;2613523;36;20030;-52
2022/11/29 05:31:51;;;;;;;43.80;11.43;;;;;;;9.70;100.00;101600.63;2614974;36;20061;-56
2022/11/29 05:34:35;;;;;;;38.03;10.27;;;;;;;9.73;100.00;101605.78;2613974;36;20042;-55
2022/11/29 05:37:14;;;;;;;53.88;11.70;;;;;;;9.75;100.00;101603.81;2611649;36;20069;-49
2022/11/29 05:39:50;;;;;;;;;;;;;;;9.85;100.00;101605.81;2614495;36;20443;-53
2022/11/29 05:42:41;;;;;;;49.42;12.90;;;;;;;9.75;100.00;101614.56;2614969;36;19953;-51
2022/11/29 05:45:19;;;;;;;32.08;10.63;;;;;;;9.88;100.00;101622.59;2633289;36;20070;-48
2022/11/29 05:47:55;;;;;;;36.90;10.85;;;;;;;9.75;100.00;101619.94;2614011;36;20669;-51
2022/11/29 05:50:33;;;;;;;44.33;11.18;;;;;;;9.90;100.00;101627.88;2614118;36;20034;-50
2022/11/29 05:53:13;;;;;;;40.53;11.88;;;;;;;9.78;100.00;101630.47;2609850;36;20025;-53
2022/11/29 05:55:48;;;;;;;43.75;10.75;;;;;;;9.77;100.00;101636.81;2613228;36;20415;-52
2022/11/29 05:58:24;;;;;;;38.45;10.00;;;;;;;9.66;100.00;101634.06;2614094;36;20037;-56
2022/11/29 06:01:00;;;;;;;54.80;11.40;;;;;;;9.84;100.00;101629.19;2610880;36;20030;-53
2022/11/29 06:03:37;;;;;;;39.40;10.73;;;;;;;9.74;100.00;101633.50;2612370;36;20037;-51
2022/11/29 06:06:15;;;;;;;54.85;10.75;;;;;;;9.70;100.00;101637.38;2611241;36;20031;-55
2022/11/29 06:08:50;;;;;;;41.63;10.65;;;;;;;9.60;100.00;101647.97;2611781;36;20026;-56
2022/11/29 06:11:24;;;;;;;46.90;9.65;;;;;;;9.69;100.00;101652.66;2613887;36;20054;-51
2022/11/29 06:14:05;;;;;;;51.63;11.80;;;;;;;9.76;100.00;101656.63;2613353;36;20041;-56
2022/11/29 06:16:50;;;;;;;35.67;10.10;;;;;;;9.53;100.00;101654.75;2609099;36;20770;-49
2022/11/29 06:19:46;;;;;;;37.35;10.13;;;;;;;9.69;100.00;101652.66;2603118;36;20046;-49
2022/11/29 06:22:42;;;;;;;35.13;10.55;;;;;;;9.68;100.00;101661.69;2602908;31;20030;-53
2022/11/29 06:25:25;;;;;;;42.53;11.85;;;;;;;9.54;100.00;101665.38;2605590;36;20035;-51
2022/11/29 06:28:10;;;;;;;37.30;10.07;;;;;;;9.64;100.00;101665.56;2605339;36;20054;-53
2022/11/29 06:30:53;;;;;;;42.35;10.52;;;;;;;9.50;100.00;101665.72;2610110;36;20026;-50
2022/11/29 06:33:26;;;;;;;28.05;8.77;;;;;;;9.54;100.00;101669.88;2611818;36;20065;-51
2022/11/29 06:36:09;;;;;;;38.55;10.88;;;;;;;9.49;100.00;101677.41;2614368;36;20042;-49
2022/11/29 06:38:40;;;;;;;41.20;9.90;;;;;;;9.60;100.00;101674.84;2611732;31;20031;-48
2022/11/29 06:41:14;;;;;;;58.90;10.82;;;;;;;9.50;100.00;101687.22;2613941;36;20038;-49
2022/11/29 06:43:43;;;;;;;40.30;10.88;;;;;;;9.55;100.00;101682.34;2614145;36;20038;-50
2022/11/29 06:46:18;;;;;;;71.90;12.82;;;;;;;9.59;100.00;101689.22;2614101;36;20039;-48
2022/11/29 06:48:53;;;;;;;35.38;9.27;;;;;;;9.65;100.00;101689.63;2613769;36;20563;-48
2022/11/29 06:51:28;;;;;;;43.22;10.75;;;;;;;9.71;100.00;101687.50;2614650;36;20053;-51
2022/11/29 06:54:07;;;;;;;39.97;10.35;;;;;;;9.68;100.00;101693.94;2614662;36;20038;-53
2022/11/29 06:56:42;;;;;;;38.72;10.32;;;;;;;9.67;100.00;101694.06;2613591;31;20034;-55
2022/11/29 06:59:21;;;;;;;37.50;10.02;;;;;;;9.54;100.00;101697.63;2611991;36;20640;-49
2022/11/29 07:01:56;;;;;;;;;;;;;;;9.44;100.00;101704.63;2613319;36;20035;-49
2022/11/29 07:04:44;;;;;;;39.10;9.82;;;;;;;9.28;100.00;101696.78;2613239;36;20368;-49
2022/11/29 07:07:16;;;;;;;34.38;9.15;;;;;;;9.38;100.00;101700.53;2613000;36;20041;-49
2022/11/29 07:09:48;;;;;;;36.08;9.75;;;;;;;9.39;100.00;101702.25;2612809;36;20042;-51
2022/11/29 07:12:17;;;;;;;46.13;11.02;;;;;;;9.35;100.00;101698.06;2613193;36;20049;-52
2022/11/29 07:14:47;;;;;;;40.35;9.90;;;;;;;9.26;100.00;101704.06;2614941;36;20038;-56
2022/11/29 07:17:22;;;;;;;;;;;;;;;9.29;100.00;101710.09;2614787;31;20026;-56
2022/11/29 07:19:59;;;;;;;53.70;11.57;;;;;;;9.33;100.00;101723.31;2614042;36;19950;-52
2022/11/29 07:22:43;;;;;;;41.45;10.82;;;;;;;9.31;100.00;101722.56;2613082;36;20033;-52
2022/11/29 07:25:23;;;;;;;57.45;10.48;;;;;;;9.18;100.00;101730.59;2613275;36;20038;-52
2022/11/29 07:28:02;;;;;;;51.90;10.93;;;;;;;9.18;100.00;101733.28;2612803;36;20038;-49
2022/11/29 07:30:40;;;;;;;67.88;12.10;;;;;;;9.18;100.00;101738.66;2611749;36;20061;-54
2022/11/29 07:33:16;;;;;;;42.60;9.80;;;;;;;9.15;100.00;101736.19;2612747;36;20031;-51
2022/11/29 07:35:51;;;;;;;40.22;10.15;;;;;;;9.14;100.00;101742.50;2611827;36;20454;-53
2022/11/29 07:38:29;;;;;;;72.43;12.18;;;;;;;9.28;100.00;101747.81;2610156;36;20038;-56
2022/11/29 07:41:06;;;;;;;35.58;10.00;;;;;;;9.37;100.00;101747.16;2612546;36;20037;-50
2022/11/29 07:43:47;;;;;;;67.88;12.50;;;;;;;9.39;100.00;101750.63;2612649;36;20031;-53
2022/11/29 07:46:15;;;;;;;41.70;11.35;;;;;;;9.35;100.00;101749.09;2611112;36;20058;-51
2022/11/29 07:48:44;;;;;;;65.03;12.48;;;;;;;9.29;100.00;101753.06;2611065;36;20416;-52
2022/11/29 07:51:13;;;;;;;43.05;11.57;;;;;;;9.29;100.00;101754.91;2599244;36;20035;-49
2022/11/29 07:53:44;;;;;;;56.67;12.77;;;;;;;9.25;100.00;101756.94;2590176;36;20042;-53
2022/11/29 07:56:15;;;;;;;76.88;12.27;;;;;;;9.21;100.00;101765.31;2605196;36;20034;-49
2022/11/29 07:58:43;;;;;;;94.53;12.00;;;;;;;9.15;100.00;101773.78;2605181;36;20041;-56
2022/11/29 08:01:11;;;;;;;81.15;12.07;;;;;;;9.28;100.00;101772.00;2604137;36;21070;-53
2022/11/29 08:03:40;;;;;;;86.13;12.05;;;;;;;9.25;100.00;101774.88;2603765;36;20038;-50
2022/11/29 08:06:08;;;;;;;37.75;11.25;;;;;;;9.31;100.00;101776.28;2604919;31;20034;-49
2022/11/29 08:08:37;;;;;;;123.47;12.75;;;;;;;9.11;100.00;101773.13;2606510;36;20049;-49
2022/11/29 08:11:10;;;;;;;66.10;13.47;;;;;;;9.24;100.00;101776.69;2604862;36;20034;-51
2022/11/29 08:13:41;;;;;;;130.45;13.25;;;;;;;9.20;100.00;101779.69;2612520;36;20299;-53
2022/11/29 08:16:10;;;;;;;36.63;10.02;;;;;;;9.35;100.00;101773.28;2610900;36;20069;-51
2022/11/29 08:18:38;;;;;;;42.67;10.27;;;;;;;9.45;100.00;101787.81;2604655;31;20071;-50
2022/11/29 08:21:07;;;;;;;34.80;8.82;;;;;;;9.45;100.00;101790.50;2605274;36;20034;-52
2022/11/29 08:23:36;;;;;;;;;;;;;;;9.33;100.00;101785.94;2603431;36;20038;-54
2022/11/29 08:26:07;;;;;;;32.75;8.32;;;;;;;9.32;100.00;101789.63;2603181;36;19958;-54
2022/11/29 08:28:35;;;;;;;66.65;10.52;;;;;;;9.30;100.00;101794.22;2603442;36;20038;-51
2022/11/29 08:31:09;;;;;;;36.85;8.90;;;;;;;9.25;100.00;101799.91;2606327;31;20035;-53
2022/11/29 08:33:38;;;;;;;50.00;10.65;;;;;;;9.18;100.00;101803.13;2603855;36;20034;-57
2022/11/29 08:36:08;;;;;;;34.42;7.85;;;;;;;9.14;100.00;101801.59;2604500;36;20463;-51
2022/11/29 08:38:36;;;;;;;27.20;8.32;;;;;;;9.32;100.00;101804.84;2604553;36;20575;-55
2022/11/29 08:41:06;;;;;;;25.02;7.15;;;;;;;9.34;100.00;101803.81;2607410;36;20061;-51
2022/11/29 08:43:35;;;;;;;33.00;8.05;;;;;;;9.27;100.00;101807.88;2609155;36;20046;-55
2022/11/29 08:46:06;;;;;;;64.10;9.40;;;;;;;9.03;100.00;101799.66;2610287;36;20074;-54
2022/11/29 08:48:35;;;;;;;22.20;7.30;;;;;;;9.04;100.00;101807.59;2612120;36;20037;-56
2022/11/29 08:51:05;;;;;;;34.28;8.05;;;;;;;9.24;100.00;101803.56;2612660;36;20065;-54
2022/11/29 08:53:41;;;;;;;32.47;7.55;;;;;;;9.36;100.00;101803.69;2604140;36;20041;-50
2022/11/29 08:56:10;;;;;;;24.20;7.72;;;;;;;9.22;100.00;101810.88;2611882;36;20038;-50
2022/11/29 08:58:38;;;;;;;26.80;8.98;;;;;;;9.33;100.00;101818.19;2607283;31;20114;-50
2022/11/29 09:01:15;;;;;;;35.35;9.45;;;;;;;9.26;100.00;101817.75;2611868;36;20031;-49
2022/11/29 09:06:24;;;;;;;55.05;8.70;;;;;;;9.15;100.00;101825.69;2607361;31;20045;-52
2022/11/29 09:08:52;;;;;;;36.88;9.27;;;;;;;9.21;100.00;101832.47;2604185;31;20042;-56
2022/11/29 09:11:22;;;;;;;35.97;9.10;;;;;;;9.15;100.00;101827.50;2605238;36;20073;-51
2022/11/29 09:13:54;;;;;;;31.00;8.07;;;;;;;9.07;100.00;101822.66;2610576;36;20042;-56
2022/11/29 09:16:27;;;;;;;29.50;9.23;;;;;;;9.23;100.00;101817.97;2606739;36;20407;-49
2022/11/29 09:18:56;;;;;;;47.50;9.35;;;;;;;9.09;100.00;101834.16;2602743;36;20034;-54
2022/11/29 09:21:25;;;;;;;51.00;9.25;;;;;;;8.95;100.00;101835.03;2603481;36;21432;-54
2022/11/29 09:23:57;;;;;;;22.25;8.10;;;;;;;9.21;100.00;101833.31;2604014;36;20057;-50
2022/11/29 09:26:28;;;;;;;39.33;9.25;;;;;;;9.12;100.00;101832.09;2602897;36;20030;-53
2022/11/29 09:28:57;;;;;;;52.92;10.23;;;;;;;9.10;100.00;101835.88;2602261;36;20530;-53
2022/11/29 09:31:29;;;;;;;38.50;9.88;;;;;;;9.20;100.00;101838.78;2605554;36;20053;-50
2022/11/29 09:33:58;;;;;;;26.27;8.07;;;;;;;9.26;100.00;101838.38;2603217;36;20039;-49
2022/11/29 09:36:26;;;;;;;37.03;8.68;;;;;;;9.19;100.00;101842.47;2603931;31;20034;-51
2022/11/29 09:38:55;;;;;;;51.35;8.80;;;;;;;9.10;100.00;101841.25;2603475;36;20081;-50
2022/11/29 09:41:47;;;;;;;30.58;9.38;;;;;;;9.07;100.00;101847.69;2605156;31;20061;-51
2022/11/29 09:44:23;;;;;;;34.92;7.63;;;;;;;9.39;100.00;101850.03;2603600;36;20556;-52
2022/11/29 09:47:05;;;;;;;43.20;9.18;;;;;;;9.22;100.00;101853.84;2603777;36;20069;-50
2022/11/29 09:49:56;;;;;;;37.22;8.60;;;;;;;9.18;100.00;101851.47;2607435;36;20038;-59
2022/11/29 09:52:38;;;;;;;25.95;7.70;;;;;;;9.25;100.00;101853.63;2602837;36;20042;-54
2022/11/29 09:55:23;;;;;;;22.83;7.80;;;;;;;9.49;100.00;101860.16;2606052;36;20041;-48
2022/11/29 09:57:53;;;;;;;37.15;9.02;;;;;;;9.42;100.00;101860.56;2595367;36;20076;-51
2022/11/29 10:00:22;;;;;;;40.95;9.15;;;;;;;9.48;100.00;101872.72;2596740;36;20067;-51
2022/11/29 10:02:59;;;;;;;32.55;7.95;;;;;;;9.37;100.00;101872.59;2603980;36;20034;-54
2022/11/29 10:05:34;;;;;;;41.42;8.43;;;;;;;9.33;100.00;101871.91;2602561;36;20046;-55
2022/11/29 10:08:08;;;;;;;43.15;8.80;;;;;;;9.39;100.00;101878.72;2603315;36;20042;-53
2022/11/29 10:10:44;;;;;;;32.00;8.70;;;;;;;9.42;100.00;101887.44;2602488;31;21920;-48
2022/11/29 10:13:22;;;;;;;25.23;8.25;;;;;;;9.56;100.00;101883.81;2604040;31;20671;-51
2022/11/29 10:15:54;;;;;;;27.73;8.40;;;;;;;9.73;100.00;101877.28;2609036;36;20037;-56
2022/11/29 10:18:30;;;;;;;30.83;8.25;;;;;;;9.70;100.00;101885.56;2609284;31;20041;-50
2022/11/29 10:21:04;;;;;;;31.13;9.90;;;;;;;9.56;100.00;101874.91;2612651;31;20843;-54
2022/11/29 10:23:37;;;;;;;27.95;8.13;;;;;;;9.53;100.00;101877.78;2589804;36;20038;-52
2022/11/29 10:26:07;;;;;;;26.20;8.20;;;;;;;9.65;100.00;101879.63;2602053;36;20035;-53
2022/11/29 10:28:38;;;;;;;31.50;10.57;;;;;;;9.67;100.00;101880.38;2601405;36;20038;-58
2022/11/29 10:31:17;;;;;;;26.92;7.50;;;;;;;9.43;100.00;101882.91;2605631;36;20062;-54
2022/11/29 10:33:49;;;;;;;22.73;8.60;;;;;;;9.29;100.00;101883.88;2604758;36;20039;-50
2022/11/29 10:36:27;;;;;;;25.05;8.18;;;;;;;9.39;100.00;101881.41;2610266;36;20038;-58
2022/11/29 10:39:00;;;;;;;28.45;8.88;;;;;;;9.46;100.00;101886.25;2612530;36;20039;-54
2022/11/29 10:41:34;;;;;;;22.98;8.60;;;;;;;9.58;100.00;101881.00;2612837;36;20030;-53
2022/11/29 10:44:03;;;;;;;21.15;8.27;;;;;;;9.77;100.00;101872.56;2610828;36;20035;-53
2022/11/29 10:46:35;;;;;;;26.37;8.33;;;;;;;9.66;100.00;101873.31;2610323;31;20046;-49
2022/11/29 10:49:12;;;;;;;25.38;7.55;;;;;;;9.76;100.00;101869.00;2610921;36;20034;-58
2022/11/29 10:51:40;;;;;;;21.10;8.30;;;;;;;9.77;100.00;101876.09;2611575;36;20030;-56
2022/11/29 10:54:23;;;;;;;23.33;8.17;;;;;;;9.68;100.00;101867.81;2611761;36;20044;-49
2022/11/29 10:56:53;;;;;;;24.98;7.88;;;;;;;9.55;100.00;101870.47;2613634;36;20161;-52
2022/11/29 10:59:25;;;;;;;23.13;7.90;;;;;;;9.64;100.00;101875.22;2613309;36;20031;-53
2022/11/29 11:01:54;;;;;;;25.13;8.05;;;;;;;9.89;100.00;101876.22;2611747;31;20061;-58
2022/11/29 11:04:33;;;;;;;19.80;7.82;;;;;;;9.86;100.00;101874.59;2613225;36;20037;-53
2022/11/29 11:07:02;;;;;;;;;;;;;;;9.98;100.00;101872.88;2608509;36;20038;-51
2022/11/29 11:09:36;;;;;;;19.55;7.75;;;;;;;10.04;100.00;101872.47;2609951;36;19954;-53
2022/11/29 11:12:10;;;;;;;28.27;8.38;;;;;;;10.38;100.00;101875.50;2610674;31;20035;-51
2022/11/29 11:14:39;;;;;;;31.98;9.82;;;;;;;10.41;100.00;101869.88;2611812;36;20566;-51
2022/11/29 11:17:21;;;;;;;;;;;;;;;10.11;100.00;101873.72;2610373;36;20591;-49
2022/11/29 11:19:59;;;;;;;25.58;8.25;;;;;;;10.23;100.00;101879.22;2610950;36;19962;-53
2022/11/29 11:22:31;;;;;;;18.98;8.15;;;;;;;10.10;100.00;101882.78;2601342;36;20053;-50
2022/11/29 11:25:03;;;;;;;22.83;8.40;;;;;;;10.36;100.00;101876.56;2611218;36;20034;-57
2022/11/29 11:27:34;;;;;;;21.10;8.55;;;;;;;10.29;100.00;101876.09;2610519;36;20041;-55
2022/11/29 11:30:04;;;;;;;22.45;8.50;;;;;;;10.18;100.00;101880.41;2607941;36;20038;-52
2022/11/29 11:32:32;;;;;;;24.63;8.75;;;;;;;10.26;100.00;101887.06;2598797;36;20452;-50
2022/11/29 11:35:03;;;;;;;20.90;9.00;;;;;;;10.32;100.00;101886.63;2606287;36;20034;-58
2022/11/29 11:37:34;;;;;;;27.10;8.88;;;;;;;10.47;100.00;101879.34;2606608;31;20534;-55
2022/11/29 11:40:21;;;;;;;23.23;8.48;;;;;;;10.27;100.00;101888.81;2608213;36;20034;-59
2022/11/29 11:42:49;;;;;;;19.10;7.78;;;;;;;10.39;100.00;101879.03;2610874;36;20042;-53
2022/11/29 11:45:28;;;;;;;20.23;8.67;;;;;;;10.38;100.00;101888.94;2609330;36;20035;-58
2022/11/29 11:47:59;;;;;;;21.10;8.98;;;;;;;10.52;100.00;101888.78;2609393;36;20030;-53
2022/11/29 11:50:33;;;;;;;24.33;8.70;;;;;;;10.24;100.00;101894.41;2608786;36;20038;-50
2022/11/29 11:53:06;;;;;;;23.23;9.07;;;;;;;10.34;100.00;101884.75;2610452;36;20352;-53
2022/11/29 11:55:38;;;;;;;22.27;9.75;;;;;;;10.27;100.00;101886.97;2610671;36;20034;-56
2022/11/29 11:58:18;;;;;;;21.15;8.45;;;;;;;10.38;100.00;101897.03;2613452;31;20065;-50